Schneifelwetter: Wetterstation Hallschlag, 537 m . NN
Wetterdaten: Mittwoch, 25.03.2009
Datum Zeit Temp. A. Temp. 2 Feuchte A. Luftdruck Regen Wind Richtung Richtung Sonnenschein Helligkeit T Regen Taupunkt Windchill
25.03.2009 00:11 -3,1 C -4,2 C 93 % 1010 hPa 0,0 l/m 7,2 km/h (2 Bft) W-SW 245 0 min 0 lux 0,00 min -4,1 C -4,0 C
25.03.2009 00:26 -3,3 C -4,2 C 93 % 1010 hPa 0,0 l/m 10,0 km/h (2 Bft) W 260 0 min 0 lux 0,00 min -4,3 C -7,1 C
25.03.2009 00:41 -3,1 C -3,6 C 94 % 1010 hPa 0,0 l/m 12,2 km/h (2 Bft) W-SW 255 0 min 0 lux 0,00 min -3,9 C -8,7 C
25.03.2009 00:56 -2,5 C -2,5 C 95 % 1009 hPa 0,0 l/m 14,2 km/h (3 Bft) W-SW22.5 250 0 min 0 lux 0,00 min -3,2 C -9,5 C
25.03.2009 01:11 -2,1 C -2,2 C 95 % 1009 hPa 0,0 l/m 13,2 km/h (3 Bft) W-SW22.5 250 0 min 0 lux 0,00 min -2,8 C -8,3 C
25.03.2009 01:25 -1,9 C -2,0 C 96 % 1009 hPa 0,0 l/m 17,0 km/h (3 Bft) W-SW22.5 245 0 min 0 lux 0,00 min -2,5 C -10,5 C
25.03.2009 01:40 -1,5 C -1,6 C 96 % 1009 hPa 0,0 l/m 19,8 km/h (3 Bft) SW45 230 0 min 0 lux 0,00 min -2,1 C -11,5 C
25.03.2009 01:55 -1,4 C -1,5 C 96 % 1009 hPa 0,0 l/m 18,1 km/h (3 Bft) W-SW22.5 250 0 min 0 lux 0,00 min -2,0 C -10,5 C
25.03.2009 02:10 -1,4 C -1,4 C 96 % 1009 hPa 0,0 l/m 18,3 km/h (3 Bft) W-SW 250 0 min 0 lux 0,00 min -2,0 C -10,6 C
25.03.2009 02:25 -1,3 C -1,3 C 96 % 1009 hPa 0,0 l/m 17,0 km/h (3 Bft) W-SW 245 0 min 0 lux 0,00 min -1,9 C -9,7 C
25.03.2009 02:40 -1,2 C -1,3 C 96 % 1008 hPa 0,0 l/m 14,8 km/h (3 Bft) SW22.5 235 0 min 0 lux 0,00 min -1,8 C -8,3 C
25.03.2009 02:55 -1,1 C -1,2 C 96 % 1008 hPa 0,0 l/m 18,4 km/h (3 Bft) SW45 230 0 min 0 lux 0,00 min -1,7 C -10,3 C
25.03.2009 03:10 -1,1 C -1,2 C 96 % 1007 hPa 0,0 l/m 25,2 km/h (4 Bft) W-SW22.5 245 0 min 0 lux 0,00 min -1,7 C -13,3 C
25.03.2009 03:25 -1,0 C -1,2 C 96 % 1007 hPa 0,0 l/m 20,5 km/h (4 Bft) SW45 220 0 min 0 lux 0,00 min -1,6 C -11,2 C
25.03.2009 03:40 -0,9 C -0,9 C 97 % 1007 hPa 0,0 l/m 21,3 km/h (4 Bft) SW22.5 220 0 min 0 lux 0,00 min -1,3 C -11,4 C
25.03.2009 03:55 -0,7 C -0,8 C 97 % 1006 hPa 0,0 l/m 22,5 km/h (4 Bft) SW45 230 0 min 0 lux 0,00 min -1,1 C -11,7 C
25.03.2009 04:10 -0,6 C -0,5 C 97 % 1006 hPa 0,0 l/m 30,4 km/h (5 Bft) W-SW45 240 0 min 0 lux 0,00 min -1,0 C -14,4 C
25.03.2009 04:25 -0,4 C -0,4 C 97 % 1005 hPa 0,0 l/m 30,7 km/h (5 Bft) SW45 235 0 min 0 lux 0,00 min -0,8 C -14,2 C
25.03.2009 04:40 -0,3 C -0,3 C 97 % 1005 hPa 0,0 l/m 31,7 km/h (5 Bft) SW45 230 0 min 0 lux 0,00 min -0,7 C -14,3 C
25.03.2009 04:55 -0,3 C -0,2 C 97 % 1005 hPa 0,0 l/m 30,8 km/h (5 Bft) SW22.5 235 0 min 0 lux 0,00 min -0,7 C -14,1 C
25.03.2009 05:10 -0,3 C -0,2 C 97 % 1004 hPa 0,0 l/m 32,7 km/h (5 Bft) SW45 225 0 min 0 lux 0,00 min -0,7 C -14,6 C
25.03.2009 05:25 -0,4 C -0,1 C 97 % 1004 hPa 0,3 l/m 36,5 km/h (5 Bft) SW45 235 0 min 0 lux 15,00 min -0,8 C -15,7 C
25.03.2009 05:40 -0,4 C -0,1 C 98 % 1004 hPa 0,0 l/m 32,4 km/h (5 Bft) S-SW45 210 0 min 0 lux 0,00 min -0,7 C -14,7 C
25.03.2009 05:55 -0,4 C -0,2 C 98 % 1004 hPa 0,0 l/m 36,3 km/h (5 Bft) SW45 215 0 min 0 lux 0,00 min -0,7 C -15,7 C
25.03.2009 06:10 -0,4 C -0,2 C 98 % 1003 hPa 0,0 l/m 38,6 km/h (5 Bft) S-SW45 205 0 min 59 lux 0,00 min -0,7 C -16,2 C
25.03.2009 06:25 -0,4 C -0,2 C 98 % 1003 hPa 0,3 l/m 37,2 km/h (5 Bft) SW45 235 0 min 154 lux 15,00 min -0,7 C -15,9 C
25.03.2009 06:40 -0,6 C -0,3 C 98 % 1002 hPa 0,0 l/m 39,3 km/h (6 Bft) SW45 225 0 min 543 lux 0,00 min -0,9 C -16,7 C
25.03.2009 06:55 -0,6 C -0,3 C 98 % 1002 hPa 0,3 l/m 41,3 km/h (6 Bft) SW22.5 215 0 min 802 lux 15,00 min -0,9 C -17,1 C
25.03.2009 07:10 -0,6 C -0,3 C 98 % 1002 hPa 0,0 l/m 40,2 km/h (6 Bft) SW45 225 0 min 2,30 klux 0,00 min -0,9 C -16,9 C
25.03.2009 07:25 -0,4 C -0,2 C 98 % 1001 hPa 0,3 l/m 31,9 km/h (5 Bft) SW45 220 0 min 7,03 klux 15,00 min -0,7 C -14,5 C
25.03.2009 07:40 -0,5 C -0,2 C 98 % 1001 hPa 0,0 l/m 36,3 km/h (5 Bft) SW45 215 0 min 5,13 klux 0,00 min -0,8 C -15,8 C
25.03.2009 08:01 -0,5 C -0,2 C 98 % 1000 hPa 0,3 l/m 41,6 km/h (6 Bft) SW22.5 215 0 min 4,42 klux 21,00 min -0,8 C -17,0 C
25.03.2009 08:16 -0,3 C 0,0 C 98 % 1000 hPa 0,0 l/m 38,8 km/h (5 Bft) S-SW45 210 0 min 15,4 klux 0,00 min -0,6 C -16,1 C
25.03.2009 08:32 -0,2 C 0,1 C 98 % 1000 hPa 0,6 l/m 41,8 km/h (6 Bft) SW45 225 0 min 12,8 klux 16,00 min -0,5 C -16,6 C
25.03.2009 08:46 -0,2 C 0,1 C 97 % 999 hPa 0,6 l/m 39,7 km/h (6 Bft) SW45 220 0 min 13,6 klux 14,00 min -0,6 C -16,2 C
25.03.2009 09:01 0,0 C 0,2 C 97 % 999 hPa 0,3 l/m 36,6 km/h (5 Bft) W-SW45 240 0 min 21,6 klux 15,00 min -0,4 C -15,2 C
25.03.2009 09:16 0,2 C 0,4 C 96 % 999 hPa 0,3 l/m 40,4 km/h (6 Bft) SW22.5 235 0 min 23,9 klux 15,00 min -0,4 C -15,7 C
25.03.2009 09:31 0,1 C 0,4 C 96 % 999 hPa 0,0 l/m 34,9 km/h (5 Bft) SW22.5 220 0 min 17,7 klux 0,00 min -0,5 C -14,6 C
25.03.2009 09:46 0,1 C 0,4 C 96 % 999 hPa 0,3 l/m 32,8 km/h (5 Bft) SW22.5 230 0 min 20,1 klux 15,00 min -0,5 C -14,1 C
25.03.2009 10:01 0,3 C 0,6 C 96 % 999 hPa 0,3 l/m 35,1 km/h (5 Bft) W-SW45 240 0 min 37,4 klux 15,00 min -0,3 C -14,4 C
25.03.2009 10:17 0,3 C 0,6 C 96 % 998 hPa 0,3 l/m 31,4 km/h (5 Bft) W-SW22.5 245 0 min 24,4 klux 16,00 min -0,3 C -13,4 C
25.03.2009 10:31 0,5 C 0,8 C 95 % 998 hPa 0,3 l/m 3,1 km/h (1 Bft) W-SW45 240 0 min 30,7 klux 14,00 min -0,2 C 0,5 C
25.03.2009 10:46 0,6 C 0,8 C 95 % 998 hPa 0,3 l/m 29,0 km/h (5 Bft) SW22.5 235 0 min 28,0 klux 15,00 min -0,1 C -12,3 C
25.03.2009 11:01 0,7 C 1,0 C 95 % 998 hPa 0,0 l/m 40,0 km/h (6 Bft) W-SW45 240 0 min 31,4 klux 0,00 min -0,0 C -14,9 C
25.03.2009 11:16 0,5 C 0,8 C 95 % 998 hPa 0,0 l/m 35,8 km/h (5 Bft) W-SW45 250 0 min 22,8 klux 0,00 min -0,2 C -14,3 C
25.03.2009 11:31 0,7 C 0,8 C 95 % 998 hPa 0,3 l/m 39,3 km/h (6 Bft) W-SW45 250 0 min 30,8 klux 15,00 min -0,0 C -14,8 C
25.03.2009 11:46 0,8 C 0,9 C 95 % 997 hPa 0,0 l/m 35,0 km/h (5 Bft) W-SW22.5 255 0 min 26,7 klux 0,00 min 0,1 C -13,6 C
25.03.2009 12:01 1,0 C 1,0 C 95 % 997 hPa 0,3 l/m 28,5 km/h (4 Bft) SW45 235 0 min 32,1 klux 15,00 min 0,3 C -11,5 C
25.03.2009 12:17 1,6 C 1,4 C 94 % 997 hPa 0,9 l/m 32,8 km/h (5 Bft) W-SW45 245 0 min 45,8 klux 16,00 min 0,7 C -11,9 C
25.03.2009 12:31 1,7 C 1,5 C 93 % 997 hPa 0,3 l/m 24,1 km/h (4 Bft) W-SW22.5 250 0 min 46,8 klux 14,00 min 0,7 C -9,1 C
25.03.2009 12:46 1,5 C 1,5 C 93 % 997 hPa 0,0 l/m 0,0 km/h (0 Bft) W-SW22.5 250 0 min 28,6 klux 0,00 min 0,5 C 1,5 C
25.03.2009 13:01 1,6 C 1,5 C 94 % 997 hPa 0,0 l/m 0,0 km/h (0 Bft) W-SW45 245 0 min 39,0 klux 0,00 min 0,7 C 1,6 C
25.03.2009 13:16 2,2 C 2,0 C 93 % 997 hPa 0,3 l/m 0,0 km/h (0 Bft) W-SW22.5 245 0 min 48,3 klux 15,00 min 1,2 C 2,2 C
25.03.2009 13:31 2,5 C 2,3 C 92 % 997 hPa 0,0 l/m 29,3 km/h (5 Bft) W-SW22.5 250 15 min 51,5 klux 0,00 min 1,3 C -9,7 C
25.03.2009 13:46 2,5 C 2,5 C 92 % 997 hPa 0,0 l/m 28,0 km/h (4 Bft) SW45 230 0 min 41,6 klux 0,00 min 1,3 C -9,3 C
25.03.2009 14:02 2,8 C 3,0 C 92 % 997 hPa 0,0 l/m 28,0 km/h (4 Bft) W-SW22.5 245 16 min 56,1 klux 0,00 min 1,6 C -8,9 C
25.03.2009 14:17 2,1 C 1,9 C 92 % 996 hPa 0,0 l/m 28,6 km/h (4 Bft) W-SW45 240 0 min 21,4 klux 0,00 min 0,9 C -10,0 C
25.03.2009 14:31 2,4 C 1,9 C 93 % 996 hPa 0,3 l/m 27,3 km/h (4 Bft) W-SW22.5 250 0 min 44,9 klux 14,00 min 1,4 C -9,2 C
25.03.2009 14:46 1,9 C 1,9 C 93 % 996 hPa 0,0 l/m 25,7 km/h (4 Bft) W-SW22.5 250 0 min 30,9 klux 0,00 min 0,9 C -9,4 C
25.03.2009 15:01 1,6 C 1,3 C 93 % 997 hPa 0,3 l/m 22,5 km/h (4 Bft) W-SW22.5 250 0 min 20,9 klux 15,00 min 0,6 C -8,6 C
25.03.2009 15:16 1,4 C 1,2 C 94 % 997 hPa 0,3 l/m 19,8 km/h (3 Bft) W-SW22.5 250 0 min 16,4 klux 15,00 min 0,5 C -7,7 C
25.03.2009 15:31 1,7 C 1,5 C 94 % 997 hPa 0,6 l/m 17,7 km/h (3 Bft) W-SW22.5 250 0 min 44,1 klux 15,00 min 0,8 C -6,4 C
25.03.2009 15:47 2,7 C 2,5 C 94 % 996 hPa 0,3 l/m 25,0 km/h (4 Bft) W-SW22.5 250 16 min 62,3 klux 16,00 min 1,8 C -8,1 C
25.03.2009 16:01 2,0 C 2,2 C 93 % 997 hPa 0,0 l/m 20,3 km/h (4 Bft) W-SW22.5 255 0 min 13,8 klux 0,00 min 1,0 C -7,2 C
25.03.2009 16:16 2,1 C 1,8 C 94 % 997 hPa 0,3 l/m 17,3 km/h (3 Bft) W-SW22.5 240 0 min 41,9 klux 15,00 min 1,2 C -5,7 C
25.03.2009 16:31 2,8 C 2,5 C 94 % 997 hPa 0,0 l/m 19,5 km/h (3 Bft) W-SW22.5 255 0 min 27,7 klux 0,00 min 1,9 C -5,8 C
25.03.2009 16:46 2,3 C 2,0 C 93 % 997 hPa 0,3 l/m 12,6 km/h (3 Bft) W-SW22.5 255 0 min 6,19 klux 15,00 min 1,3 C -2,7 C
25.03.2009 17:01 1,9 C 1,7 C 93 % 997 hPa 0,6 l/m 10,1 km/h (2 Bft) W 260 0 min 10,6 klux 15,00 min 0,9 C -1,4 C
25.03.2009 17:16 1,7 C 1,6 C 94 % 997 hPa 0,3 l/m 15,0 km/h (3 Bft) W-SW22.5 250 0 min 9,9 klux 15,00 min 0,8 C -4,9 C
25.03.2009 17:32 1,6 C 1,3 C 95 % 997 hPa 0,0 l/m 16,8 km/h (3 Bft) W-SW 250 0 min 8,23 klux 0,00 min 0,9 C -6,0 C
25.03.2009 17:46 1,5 C 1,4 C 95 % 997 hPa 0,0 l/m 18,5 km/h (3 Bft) W-SW22.5 250 0 min 7,19 klux 0,00 min 0,8 C -7,0 C
25.03.2009 18:01 1,5 C 1,4 C 95 % 997 hPa 0,0 l/m 19,7 km/h (3 Bft) W-SW22.5 255 0 min 6,29 klux 0,00 min 0,8 C -7,6 C
25.03.2009 18:16 1,5 C 1,4 C 96 % 998 hPa 0,0 l/m 20,5 km/h (4 Bft) W-SW22.5 250 0 min 7,14 klux 0,00 min 0,9 C -7,9 C
25.03.2009 18:31 1,3 C 1,4 C 96 % 998 hPa 0,0 l/m 20,3 km/h (4 Bft) W-SW22.5 250 0 min 3,35 klux 0,00 min 0,7 C -8,1 C
25.03.2009 18:46 1,2 C 1,1 C 96 % 998 hPa 0,0 l/m 16,3 km/h (3 Bft) W-SW22.5 250 0 min 1,93 klux 0,00 min 0,6 C -6,3 C
25.03.2009 19:01 1,2 C 1,0 C 96 % 998 hPa 0,0 l/m 20,8 km/h (4 Bft) W-SW45 255 0 min 1,04 klux 0,00 min 0,6 C -8,4 C
25.03.2009 19:17 1,2 C 1,1 C 97 % 999 hPa 0,0 l/m 23,1 km/h (4 Bft) W45 260 0 min 275 lux 0,00 min 0,8 C -9,4 C
25.03.2009 19:31 1,2 C 1,1 C 97 % 999 hPa 0,0 l/m 28,3 km/h (4 Bft) W22.5 260 0 min 27 lux 0,00 min 0,8 C -11,2 C
25.03.2009 19:46 1,3 C 1,2 C 97 % 999 hPa 0,0 l/m 27,9 km/h (4 Bft) W22.5 260 0 min 10 lux 0,00 min 0,9 C -10,9 C
25.03.2009 20:01 1,5 C 1,4 C 97 % 1000 hPa 0,0 l/m 20,9 km/h (4 Bft) W45 275 0 min 1 lux 0,00 min 1,1 C -8,1 C
25.03.2009 20:16 1,5 C 1,5 C 97 % 1000 hPa 0,0 l/m 32,1 km/h (5 Bft) W45 265 0 min 1 lux 0,00 min 1,1 C -11,9 C
25.03.2009 20:31 1,5 C 1,5 C 96 % 1000 hPa 0,0 l/m 30,8 km/h (5 Bft) W22.5 265 0 min 0 lux 0,00 min 0,9 C -11,5 C
25.03.2009 20:47 1,5 C 1,4 C 95 % 1000 hPa 0,0 l/m 29,6 km/h (5 Bft) W22.5 260 0 min 0 lux 0,00 min 0,8 C -11,2 C
25.03.2009 21:02 1,4 C 1,3 C 95 % 1000 hPa 0,0 l/m 27,9 km/h (4 Bft) W22.5 265 0 min 0 lux 0,00 min 0,7 C -10,8 C
25.03.2009 21:16 1,5 C 1,4 C 95 % 1000 hPa 0,0 l/m 30,3 km/h (5 Bft) W67.5 260 0 min 0 lux 0,00 min 0,8 C -11,4 C
25.03.2009 21:31 1,5 C 1,4 C 95 % 1000 hPa 0,0 l/m 32,1 km/h (5 Bft) W22.5 265 0 min 0 lux 0,00 min 0,8 C -11,9 C
25.03.2009 21:46 1,2 C 1,2 C 95 % 1000 hPa 0,0 l/m 29,8 km/h (5 Bft) W22.5 270 0 min 0 lux 0,00 min 0,5 C -11,7 C
25.03.2009 22:01 1,2 C 1,1 C 96 % 1001 hPa 0,0 l/m 30,4 km/h (5 Bft) W45 265 0 min 0 lux 0,00 min 0,6 C -11,8 C
25.03.2009 22:16 1,1 C 1,0 C 96 % 1001 hPa 0,3 l/m 13,8 km/h (3 Bft) W45 270 0 min 0 lux 15,00 min 0,5 C -4,9 C
25.03.2009 22:32 1,1 C 0,9 C 96 % 1001 hPa 0,0 l/m 20,0 km/h (4 Bft) W-NW22.5 295 0 min 0 lux 0,00 min 0,5 C -8,2 C
25.03.2009 22:46 1,2 C 1,0 C 96 % 1002 hPa 0,0 l/m 21,5 km/h (4 Bft) W45 275 0 min 0 lux 0,00 min 0,6 C -8,7 C
25.03.2009 23:01 1,2 C 0,8 C 96 % 1002 hPa 0,0 l/m 19,8 km/h (3 Bft) W22.5 270 0 min 0 lux 0,00 min 0,6 C -8,0 C
25.03.2009 23:16 1,2 C 1,0 C 96 % 1002 hPa 0,0 l/m 22,9 km/h (4 Bft) W22.5 265 0 min 0 lux 0,00 min 0,6 C -9,3 C
25.03.2009 23:29 1,2 C 1,0 C 96 % 1002 hPa 0,0 l/m 10,9 km/h (2 Bft) W22.5 265 0 min 0 lux 0,00 min 0,6 C -2,8 C
25.03.2009 23:44 1,1 C 0,9 C 96 % 1002 hPa 0,0 l/m 18,8 km/h (3 Bft) W22.5 265 0 min 0 lux 0,00 min 0,5 C -7,7 C
25.03.2009 23:54 1,1 C 0,9 C 96 % 1002 hPa 0,0 l/m 18,1 km/h (3 Bft) W22.5 260 0 min 0 lux 0,00 min 0,5 C -7,3 C
_ Min-Zeit 00:26 00:11 13:31 14:17 - 12:46 - - - - - 00:26 06:55
Minimum _ -3,3 C -4,2 C 92 % 996 hPa - 0,0 km/h (0 Bft) - - - - - -4,3 C -17,1 C
_ Max-Zeit 14:02 14:02 05:40 00:11 12:17 08:32 - - 14:02 15:47 08:01 16:31 13:16
Maximum _ 2,8 C 3,0 C 98 % 1010 hPa 0,9 l/m 41,8 km/h
SW (6 Bft)
- - 16 min 62,3 klux 21,00 min 1,9 C 2,2 C
Durchschnitt _ 0,5 C 0,5 C 96 % 1001 hPa #10,5 l/m 25,1 km/h (4 Bft) W-SW - #47 min. 12,0 klux #7:21 h -0,1 C -10,3 C